Time;durP1;ratioP1;P1;durP2;ratioP2;P2;SDS_P1;SDS_P2;PMS_P1;PMS_P2;Temp;Humidity;BMP_temperature;BMP_pressure;BME280_temperature;BME280_humidity;BME280_pressure;Samples;Min_cycle;Max_cycle;Signal;HPM_P1;HPM_P2
2023/09/28 00:02:46;;;;;;;5.45;5.05;;;;;;;;;;5075927;28;20048;-79
2023/09/28 00:05:15;;;;;;;6.35;5.75;;;;;;;;;;5059262;28;20126;-80
2023/09/28 00:07:42;;;;;;;5.70;5.18;;;;;;;;;;5075581;28;20043;-79
2023/09/28 00:10:11;;;;;;;5.63;5.22;;;;;;;;;;5058578;28;20043;-80
2023/09/28 00:12:38;;;;;;;6.60;5.78;;;;;;;;;;5059114;28;20048;-80
2023/09/28 00:15:05;;;;;;;6.88;6.00;;;;;;;;;;5075570;28;20048;-80
2023/09/28 00:17:33;;;;;;;6.00;5.60;;;;;;;;;;5076335;28;20044;-80
2023/09/28 00:19:59;;;;;;;6.85;6.35;;;;;;;;;;5075347;28;20060;-80
2023/09/28 00:22:25;;;;;;;5.90;5.60;;;;;;;;;;5076353;28;20052;-80
2023/09/28 00:24:51;;;;;;;5.32;5.03;;;;;;;;;;5075534;28;20043;-80
2023/09/28 00:27:17;;;;;;;6.05;5.63;;;;;;;;;;5058646;28;20048;-80
2023/09/28 00:29:46;;;;;;;6.07;5.68;;;;;;;;;;5075407;28;20040;-79
2023/09/28 00:32:12;;;;;;;6.88;5.70;;;;;;;;;;5075344;28;20040;-80
2023/09/28 00:34:38;;;;;;;6.55;5.53;;;;;;;;;;5075234;28;20193;-79
2023/09/28 00:37:04;;;;;;;5.93;5.35;;;;;;;;;;5075149;28;20135;-80
2023/09/28 00:39:31;;;;;;;6.57;6.07;;;;;;;;;;5075350;28;20067;-79
2023/09/28 00:41:57;;;;;;;6.32;5.75;;;;;;;;;;5075411;28;20232;-79
2023/09/28 00:44:23;;;;;;;6.90;6.28;;;;;;;;;;5077406;28;20396;-80
2023/09/28 00:46:50;;;;;;;7.07;6.35;;;;;;;;;;5062484;28;20134;-79
2023/09/28 00:49:17;;;;;;;6.80;6.20;;;;;;;;;;5078806;28;20040;-79
2023/09/28 00:51:44;;;;;;;6.20;5.57;;;;;;;;;;5078723;28;20471;-79
2023/09/28 00:54:11;;;;;;;6.07;5.68;;;;;;;;;;5078714;28;20454;-80
2023/09/28 00:56:37;;;;;;;7.20;5.57;;;;;;;;;;5079402;28;20407;-80
2023/09/28 00:59:03;;;;;;;7.03;5.40;;;;;;;;;;5078677;28;20044;-79
2023/09/28 01:01:31;;;;;;;5.45;4.97;;;;;;;;;;5078670;28;20437;-79
2023/09/28 01:04:00;;;;;;;6.10;5.60;;;;;;;;;;5078510;28;20097;-80
2023/09/28 01:06:26;;;;;;;6.00;5.45;;;;;;;;;;5078193;28;20460;-80
2023/09/28 01:08:53;;;;;;;4.78;4.40;;;;;;;;;;5061792;28;20377;-80
2023/09/28 01:11:22;;;;;;;4.68;4.20;;;;;;;;;;5078613;28;20052;-80
2023/09/28 01:13:49;;;;;;;6.50;4.60;;;;;;;;;;5061346;28;20070;-80
2023/09/28 01:16:15;;;;;;;5.22;4.15;;;;;;;;;;5077918;28;20040;-80
2023/09/28 01:18:41;;;;;;;4.70;4.30;;;;;;;;;;5061298;28;20096;-80
2023/09/28 01:21:10;;;;;;;5.05;3.92;;;;;;;;;;5079040;28;20067;-80
2023/09/28 01:23:36;;;;;;;4.60;4.20;;;;;;;;;;5096546;28;20426;-80
2023/09/28 01:26:02;;;;;;;5.20;4.72;;;;;;;;;;5077979;28;20131;-80
2023/09/28 01:28:29;;;;;;;6.20;3.88;;;;;;;;;;5078052;28;20059;-80
2023/09/28 01:30:56;;;;;;;5.65;4.35;;;;;;;;;;5077910;28;20505;-79
2023/09/28 01:33:22;;;;;;;5.00;3.90;;;;;;;;;;5061354;28;20093;-80
2023/09/28 01:35:48;;;;;;;5.13;4.68;;;;;;;;;;5061305;28;20051;-80
2023/09/28 01:38:19;;;;;;;5.32;4.90;;;;;;;;;;5077887;28;20117;-80
2023/09/28 01:40:46;;;;;;;4.60;4.30;;;;;;;;;;5078627;28;20051;-79
2023/09/28 01:43:12;;;;;;;7.30;5.15;;;;;;;;;;5077827;28;20075;-79
2023/09/28 01:45:38;;;;;;;5.03;4.70;;;;;;;;;;5078028;28;20044;-79
2023/09/28 01:48:04;;;;;;;5.32;4.65;;;;;;;;;;5077688;28;20338;-80
2023/09/28 01:50:31;;;;;;;5.40;4.47;;;;;;;;;;5077581;28;20128;-80
2023/09/28 01:52:57;;;;;;;4.22;3.83;;;;;;;;;;5095869;28;20086;-79
2023/09/28 01:55:23;;;;;;;4.78;4.15;;;;;;;;;;5077171;28;20071;-80
2023/09/28 01:57:49;;;;;;;4.93;4.53;;;;;;;;;;5077451;28;20044;-79
2023/09/28 02:00:20;;;;;;;5.20;4.70;;;;;;;;;;5077443;28;20070;-80
2023/09/28 02:02:46;;;;;;;5.13;4.78;;;;;;;;;;5077355;28;20055;-80
2023/09/28 02:05:16;;;;;;;6.20;5.68;;;;;;;;;;5077612;28;20040;-79
2023/09/28 02:07:43;;;;;;;5.45;4.93;;;;;;;;;;5076874;28;20061;-79
2023/09/28 02:10:10;;;;;;;5.70;5.10;;;;;;;;;;5077231;28;20201;-80
2023/09/28 02:12:38;;;;;;;7.43;5.47;;;;;;;;;;5077135;28;20435;-80
2023/09/28 02:15:06;;;;;;;6.25;5.43;;;;;;;;;;5076734;28;20127;-80
2023/09/28 02:17:32;;;;;;;7.35;5.82;;;;;;;;;;5077086;28;20048;-80
2023/09/28 02:19:58;;;;;;;6.28;5.72;;;;;;;;;;5076895;28;20047;-80
2023/09/28 02:22:24;;;;;;;6.15;5.53;;;;;;;;;;5060393;28;20040;-80
2023/09/28 02:24:51;;;;;;;8.35;6.25;;;;;;;;;;5076933;28;20472;-79
2023/09/28 02:27:22;;;;;;;8.20;5.93;;;;;;;;;;5059801;28;20087;-80
2023/09/28 02:29:48;;;;;;;8.43;6.03;;;;;;;;;;5077594;28;20078;-80
2023/09/28 02:32:14;;;;;;;7.00;6.30;;;;;;;;;;5076714;28;20048;-79
2023/09/28 02:34:40;;;;;;;8.45;6.00;;;;;;;;;;5076544;28;20079;-80
2023/09/28 02:37:07;;;;;;;7.22;6.35;;;;;;;;;;5077362;28;20051;-80
2023/09/28 02:39:36;;;;;;;6.38;5.88;;;;;;;;;;5076420;28;20400;-80
2023/09/28 02:42:07;;;;;;;6.70;6.07;;;;;;;;;;5059772;28;20050;-80
2023/09/28 02:44:34;;;;;;;6.78;5.85;;;;;;;;;;5076607;28;20048;-80
2023/09/28 02:47:00;;;;;;;6.47;5.80;;;;;;;;;;5076481;28;20082;-79
2023/09/28 02:49:27;;;;;;;6.40;5.30;;;;;;;;;;5076800;28;20093;-80
2023/09/28 02:51:53;;;;;;;6.30;5.57;;;;;;;;;;5076461;28;20368;-80
2023/09/28 02:54:20;;;;;;;6.88;6.20;;;;;;;;;;5076156;28;20484;-79
2023/09/28 02:56:46;;;;;;;6.90;6.05;;;;;;;;;;5059634;28;20506;-79
2023/09/28 02:59:12;;;;;;;6.72;6.28;;;;;;;;;;5076620;28;20035;-80
2023/09/28 03:01:38;;;;;;;6.50;5.90;;;;;;;;;;5059603;28;20054;-79
2023/09/28 03:04:04;;;;;;;7.22;6.53;;;;;;;;;;5076368;28;20048;-80
2023/09/28 03:06:37;;;;;;;7.10;6.40;;;;;;;;;;5075786;28;20052;-80
2023/09/28 03:09:03;;;;;;;6.82;6.13;;;;;;;;;;5077125;28;20455;-79
2023/09/28 03:11:29;;;;;;;6.95;6.25;;;;;;;;;;5076102;28;20051;-80
2023/09/28 03:13:56;;;;;;;6.75;6.15;;;;;;;;;;5075963;28;20135;-80
2023/09/28 03:16:22;;;;;;;7.40;6.68;;;;;;;;;;5075823;28;20044;-80
2023/09/28 03:18:48;;;;;;;6.68;6.10;;;;;;;;;;5075878;28;20143;-80
2023/09/28 03:21:14;;;;;;;6.53;5.93;;;;;;;;;;5076420;28;20063;-80
2023/09/28 03:23:40;;;;;;;6.65;6.15;;;;;;;;;;5076526;28;20529;-80
2023/09/28 03:26:06;;;;;;;6.93;6.20;;;;;;;;;;5059258;28;20514;-79
2023/09/28 03:28:33;;;;;;;6.50;5.95;;;;;;;;;;5075730;28;20048;-79
2023/09/28 03:30:59;;;;;;;6.70;6.20;;;;;;;;;;5059209;28;20052;-79
2023/09/28 03:33:25;;;;;;;6.10;5.70;;;;;;;;;;5075854;28;20044;-79
2023/09/28 03:35:51;;;;;;;6.10;5.70;;;;;;;;;;5076006;28;20090;-80
2023/09/28 03:38:17;;;;;;;6.15;5.55;;;;;;;;;;5075891;28;20051;-79
2023/09/28 03:40:43;;;;;;;6.97;6.28;;;;;;;;;;5075910;28;20083;-79
2023/09/28 03:43:09;;;;;;;7.00;5.35;;;;;;;;;;5093656;28;20078;-79
2023/09/28 03:45:35;;;;;;;7.63;6.35;;;;;;;;;;5076645;28;20044;-79
2023/09/28 03:48:01;;;;;;;6.60;5.85;;;;;;;;;;5059084;28;20054;-79
2023/09/28 03:50:28;;;;;;;5.75;5.25;;;;;;;;;;5093651;28;20126;-79
2023/09/28 03:52:54;;;;;;;6.00;5.50;;;;;;;;;;5075659;28;20044;-80
2023/09/28 03:55:24;;;;;;;7.20;6.50;;;;;;;;;;5093483;28;20044;-80
2023/09/28 03:57:50;;;;;;;7.35;6.15;;;;;;;;;;5075610;28;20128;-79
2023/09/28 04:00:17;;;;;;;8.07;6.03;;;;;;;;;;5075691;28;20043;-79
2023/09/28 04:02:48;;;;;;;8.15;7.20;;;;;;;;;;5059749;28;20056;-79
2023/09/28 04:05:14;;;;;;;7.95;6.32;;;;;;;;;;5075981;28;20059;-80
2023/09/28 04:07:41;;;;;;;7.97;7.07;;;;;;;;;;5075863;28;20044;-79
2023/09/28 04:10:08;;;;;;;7.13;6.47;;;;;;;;;;5093464;28;20044;-80
2023/09/28 04:12:34;;;;;;;6.97;6.38;;;;;;;;;;5075417;28;20130;-79
2023/09/28 04:15:00;;;;;;;7.80;6.28;;;;;;;;;;5075591;28;20040;-79
2023/09/28 04:17:26;;;;;;;6.68;6.00;;;;;;;;;;5075760;28;20051;-80
2023/09/28 04:19:55;;;;;;;6.55;5.95;;;;;;;;;;5061502;28;20062;-80
2023/09/28 04:22:21;;;;;;;7.13;5.88;;;;;;;;;;5079545;28;20047;-79
2023/09/28 04:24:47;;;;;;;6.38;5.75;;;;;;;;;;5062613;28;20131;-80
2023/09/28 04:27:13;;;;;;;7.60;6.32;;;;;;;;;;5079199;28;20059;-80
2023/09/28 04:29:39;;;;;;;5.78;5.28;;;;;;;;;;5079176;28;20048;-79
2023/09/28 04:32:05;;;;;;;9.48;5.82;;;;;;;;;;5063193;28;20052;-80
2023/09/28 04:34:31;;;;;;;6.97;6.30;;;;;;;;;;5078860;28;20048;-80
2023/09/28 04:36:58;;;;;;;6.85;6.22;;;;;;;;;;5079849;28;20080;-80
2023/09/28 04:39:24;;;;;;;7.10;6.40;;;;;;;;;;5079856;28;20054;-80
2023/09/28 04:41:54;;;;;;;8.95;6.35;;;;;;;;;;5079233;28;20043;-79
2023/09/28 04:44:20;;;;;;;7.70;6.95;;;;;;;;;;5061859;28;20044;-79
2023/09/28 04:46:50;;;;;;;7.13;6.60;;;;;;;;;;5096801;28;20043;-80
2023/09/28 04:49:16;;;;;;;7.32;6.82;;;;;;;;;;5062153;28;20056;-80
2023/09/28 04:51:42;;;;;;;7.22;6.68;;;;;;;;;;5078781;28;20373;-80
2023/09/28 04:54:09;;;;;;;7.72;7.20;;;;;;;;;;5097344;28;20115;-79
2023/09/28 04:56:35;;;;;;;7.38;6.78;;;;;;;;;;5078664;28;20044;-80
2023/09/28 04:59:05;;;;;;;9.02;6.60;;;;;;;;;;5078398;28;20504;-80
2023/09/28 05:01:31;;;;;;;7.70;7.00;;;;;;;;;;5078287;28;20036;-80
2023/09/28 05:03:59;;;;;;;9.05;7.10;;;;;;;;;;5061897;28;20048;-80
2023/09/28 05:06:25;;;;;;;10.70;6.95;;;;;;;;;;5079333;28;20044;-79
2023/09/28 05:08:52;;;;;;;8.80;7.90;;;;;;;;;;5096287;28;20044;-79
2023/09/28 05:11:18;;;;;;;8.68;6.78;;;;;;;;;;5078339;28;20125;-80
2023/09/28 05:13:44;;;;;;;8.18;7.38;;;;;;;;;;5061710;28;20076;-80
2023/09/28 05:16:10;;;;;;;8.60;7.28;;;;;;;;;;5078327;28;20102;-80
2023/09/28 05:18:37;;;;;;;8.60;7.43;;;;;;;;;;5075101;28;20056;-79
2023/09/28 05:21:03;;;;;;;8.68;6.80;;;;;;;;;;5058423;28;20431;-80
2023/09/28 05:23:29;;;;;;;8.07;6.93;;;;;;;;;;5058913;28;20492;-79
2023/09/28 05:25:55;;;;;;;7.70;6.88;;;;;;;;;;5057959;28;20044;-80
2023/09/28 05:28:21;;;;;;;7.30;6.60;;;;;;;;;;5058251;28;20086;-80
2023/09/28 05:30:47;;;;;;;8.15;6.47;;;;;;;;;;5025543;28;20079;-80
2023/09/28 05:33:13;;;;;;;7.75;7.03;;;;;;;;;;5075510;28;20044;-79
2023/09/28 05:35:40;;;;;;;8.18;6.80;;;;;;;;;;5058013;28;20138;-79
2023/09/28 05:38:06;;;;;;;8.00;7.30;;;;;;;;;;5058154;28;20514;-80
2023/09/28 05:40:32;;;;;;;10.13;7.03;;;;;;;;;;5058157;28;20044;-80
2023/09/28 05:42:58;;;;;;;8.00;7.20;;;;;;;;;;5057848;28;20103;-80
2023/09/28 05:45:24;;;;;;;8.05;7.25;;;;;;;;;;5057693;28;20041;-80
2023/09/28 05:47:50;;;;;;;7.95;7.25;;;;;;;;;;5058464;28;20053;-80
2023/09/28 05:50:18;;;;;;;7.55;6.95;;;;;;;;;;5057948;28;20060;-80
2023/09/28 05:52:45;;;;;;;7.35;6.47;;;;;;;;;;5058395;28;20054;-80
2023/09/28 05:55:11;;;;;;;8.00;7.13;;;;;;;;;;5058325;28;20086;-80
2023/09/28 05:57:37;;;;;;;8.32;7.13;;;;;;;;;;5075077;28;20048;-80
2023/09/28 06:00:07;;;;;;;8.13;7.43;;;;;;;;;;5057406;28;20055;-80
2023/09/28 06:02:33;;;;;;;8.25;7.40;;;;;;;;;;5075119;28;20055;-80
2023/09/28 06:04:59;;;;;;;7.20;6.60;;;;;;;;;;5058180;28;20105;-80
2023/09/28 06:07:25;;;;;;;7.15;6.50;;;;;;;;;;5057132;28;20088;-79
2023/09/28 06:09:52;;;;;;;7.43;6.40;;;;;;;;;;5074807;28;20503;-79
2023/09/28 06:12:18;;;;;;;6.82;5.70;;;;;;;;;;5057145;28;20079;-79
2023/09/28 06:14:44;;;;;;;7.88;6.22;;;;;;;;;;5056906;28;20040;-79
2023/09/28 06:17:10;;;;;;;6.85;5.20;;;;;;;;;;5057900;28;20127;-79
2023/09/28 06:19:37;;;;;;;10.30;5.50;;;;;;;;;;5068604;28;20056;-78
2023/09/28 06:22:08;;;;;;;11.00;5.35;;;;;;;;;;5077031;28;20067;-79
2023/09/28 06:24:34;;;;;;;8.90;4.90;;;;;;;;;;5095057;28;20048;-79
2023/09/28 06:27:00;;;;;;;9.88;5.05;;;;;;;;;;5077758;28;20437;-79
2023/09/28 06:29:26;;;;;;;15.25;4.55;;;;;;;;;;5077177;28;20040;-79
2023/09/28 06:31:52;;;;;;;9.90;3.90;;;;;;;;;;5077249;28;20043;-79
2023/09/28 06:34:19;;;;;;;12.35;4.72;;;;;;;;;;5094639;28;20083;-79
2023/09/28 06:36:45;;;;;;;9.00;3.75;;;;;;;;;;5061058;28;20059;-78
2023/09/28 06:39:11;;;;;;;12.35;4.85;;;;;;;;;;5060944;28;20051;-79
2023/09/28 06:41:37;;;;;;;12.35;4.45;;;;;;;;;;5076928;28;20058;-79
2023/09/28 06:44:03;;;;;;;12.82;4.68;;;;;;;;;;5076607;28;20048;-79
2023/09/28 06:46:29;;;;;;;11.95;4.50;;;;;;;;;;5076652;28;20044;-79
2023/09/28 06:48:55;;;;;;;11.73;4.32;;;;;;;;;;5060087;28;20085;-79
2023/09/28 06:51:22;;;;;;;14.50;4.57;;;;;;;;;;5076506;28;20472;-79
2023/09/28 06:53:48;;;;;;;15.60;5.03;;;;;;;;;;5076391;28;20493;-79
2023/09/28 06:56:14;;;;;;;15.07;4.40;;;;;;;;;;5076241;28;20071;-79
2023/09/28 06:58:40;;;;;;;11.88;4.22;;;;;;;;;;5060087;28;20048;-79
2023/09/28 07:01:06;;;;;;;11.85;3.85;;;;;;;;;;5094159;28;20055;-79
2023/09/28 07:03:32;;;;;;;16.38;4.03;;;;;;;;;;5077177;28;20110;-78
2023/09/28 07:05:58;;;;;;;14.32;3.72;;;;;;;;;;5077152;28;20048;-79
2023/09/28 07:08:24;;;;;;;16.73;4.78;;;;;;;;;;5076271;28;20056;-78
2023/09/28 07:10:50;;;;;;;20.38;4.55;;;;;;;;;;5060630;28;20040;-81
2023/09/28 07:13:16;;;;;;;11.57;4.00;;;;;;;;;;5075988;28;20048;-79
2023/09/28 07:15:43;;;;;;;18.45;3.92;;;;;;;;;;5075870;28;20051;-78
2023/09/28 07:18:09;;;;;;;14.55;3.97;;;;;;;;;;5076066;28;20113;-78
2023/09/28 07:20:38;;;;;;;16.25;4.05;;;;;;;;;;5075587;28;20055;-79
2023/09/28 07:23:05;;;;;;;18.50;4.28;;;;;;;;;;5075522;28;20517;-80
2023/09/28 07:25:31;;;;;;;14.13;4.47;;;;;;;;;;5059000;28;20052;-78
2023/09/28 07:27:57;;;;;;;20.52;4.50;;;;;;;;;;5059229;28;20047;-78
2023/09/28 07:30:23;;;;;;;15.05;4.43;;;;;;;;;;5076753;28;20109;-77
2023/09/28 07:32:49;;;;;;;15.98;4.38;;;;;;;;;;5075903;28;20051;-78
2023/09/28 07:35:16;;;;;;;11.65;3.92;;;;;;;;;;5076498;28;20483;-78
2023/09/28 07:37:43;;;;;;;12.90;3.92;;;;;;;;;;5042844;28;20044;-78
2023/09/28 07:40:12;;;;;;;14.05;4.13;;;;;;;;;;5093682;28;20044;-78
2023/09/28 07:42:44;;;;;;;16.98;4.63;;;;;;;;;;5059164;28;20047;-78
2023/09/28 07:45:11;;;;;;;14.63;4.30;;;;;;;;;;5075784;28;20101;-77
2023/09/28 07:47:38;;;;;;;14.60;4.70;;;;;;;;;;5075729;28;20036;-77
2023/09/28 07:50:05;;;;;;;17.30;4.90;;;;;;;;;;5075618;28;20524;-77
2023/09/28 07:52:31;;;;;;;18.27;4.93;;;;;;;;;;5076858;28;20127;-77
2023/09/28 07:54:57;;;;;;;18.27;5.15;;;;;;;;;;5079884;28;20106;-77
2023/09/28 07:57:23;;;;;;;14.02;4.50;;;;;;;;;;5062886;28;20523;-78
2023/09/28 07:59:49;;;;;;;20.33;5.97;;;;;;;;;;5062916;28;20500;-77
2023/09/28 08:02:15;;;;;;;15.43;4.85;;;;;;;;;;5080573;28;20080;-78
2023/09/28 08:04:41;;;;;;;18.95;4.78;;;;;;;;;;5063344;28;20056;-78
2023/09/28 08:07:08;;;;;;;23.88;5.45;;;;;;;;;;5079742;28;20369;-78
2023/09/28 08:09:34;;;;;;;17.17;5.03;;;;;;;;;;5079994;28;20047;-78
2023/09/28 08:12:00;;;;;;;22.00;5.38;;;;;;;;;;5063744;28;20098;-78
2023/09/28 08:14:27;;;;;;;20.65;5.03;;;;;;;;;;5079219;28;20481;-78
2023/09/28 08:16:53;;;;;;;20.88;4.63;;;;;;;;;;5079471;28;20436;-78
2023/09/28 08:19:21;;;;;;;18.92;4.78;;;;;;;;;;5079221;28;20063;-78
2023/09/28 08:21:48;;;;;;;18.88;4.43;;;;;;;;;;5079380;28;20090;-77
2023/09/28 08:24:14;;;;;;;17.83;5.00;;;;;;;;;;5079352;28;20048;-78
2023/09/28 08:26:40;;;;;;;23.50;4.63;;;;;;;;;;5080059;28;20097;-77
2023/09/28 08:29:06;;;;;;;21.95;5.00;;;;;;;;;;5079298;28;20044;-78
2023/09/28 08:31:33;;;;;;;16.35;4.40;;;;;;;;;;5079997;28;20040;-78
2023/09/28 08:33:59;;;;;;;16.73;4.95;;;;;;;;;;5078591;28;20055;-78
2023/09/28 08:36:29;;;;;;;14.13;4.18;;;;;;;;;;5079863;28;20046;-78
2023/09/28 08:38:55;;;;;;;21.40;4.82;;;;;;;;;;5079279;28;20048;-78
2023/09/28 08:41:37;;;;;;;17.95;4.97;;;;;;;;;;5078943;28;20106;-78
2023/09/28 08:44:04;;;;;;;15.75;4.70;;;;;;;;;;5079319;28;20051;-78
2023/09/28 08:46:32;;;;;;;19.58;4.70;;;;;;;;;;5078899;28;20056;-78
2023/09/28 08:49:05;;;;;;;18.98;4.88;;;;;;;;;;5079177;28;20052;-77
2023/09/28 08:51:31;;;;;;;17.23;4.80;;;;;;;;;;5078916;28;20056;-78
2023/09/28 08:53:59;;;;;;;17.75;4.63;;;;;;;;;;5078652;28;20117;-77
2023/09/28 08:56:26;;;;;;;18.23;5.50;;;;;;;;;;5079532;28;20048;-78
2023/09/28 08:58:52;;;;;;;20.17;4.97;;;;;;;;;;5078731;28;20120;-78
2023/09/28 09:01:19;;;;;;;19.05;5.15;;;;;;;;;;5062954;28;20346;-78
2023/09/28 09:03:47;;;;;;;21.38;4.82;;;;;;;;;;5078327;28;20044;-78
2023/09/28 09:06:14;;;;;;;20.77;4.47;;;;;;;;;;5062433;28;20048;-77
2023/09/28 09:08:49;;;;;;;19.55;4.93;;;;;;;;;;5078637;28;20052;-78
2023/09/28 09:11:16;;;;;;;22.67;4.60;;;;;;;;;;5078833;28;20051;-78
2023/09/28 09:13:53;;;;;;;24.02;4.75;;;;;;;;;;5061661;28;20040;-77
2023/09/28 09:16:21;;;;;;;19.23;4.32;;;;;;;;;;5061973;28;20519;-78
2023/09/28 09:18:48;;;;;;;21.35;4.60;;;;;;;;;;5061445;28;20056;-78
2023/09/28 09:21:14;;;;;;;26.15;5.15;;;;;;;;;;5079115;28;20093;-78
2023/09/28 09:23:40;;;;;;;23.05;4.55;;;;;;;;;;5078594;28;20506;-78
2023/09/28 09:26:18;;;;;;;24.02;4.68;;;;;;;;;;5078250;28;20054;-78
2023/09/28 09:28:46;;;;;;;23.45;4.60;;;;;;;;;;5078529;28;20048;-78
2023/09/28 09:31:14;;;;;;;25.83;4.97;;;;;;;;;;5078127;28;20051;-78
2023/09/28 09:33:41;;;;;;;21.92;4.30;;;;;;;;;;5078770;28;20062;-78
2023/09/28 09:36:07;;;;;;;24.30;5.25;;;;;;;;;;5078787;28;20046;-78
2023/09/28 09:38:33;;;;;;;23.33;4.75;;;;;;;;;;5078742;28;20066;-78
2023/09/28 09:41:07;;;;;;;21.02;4.53;;;;;;;;;;5077633;28;20048;-78
2023/09/28 09:43:37;;;;;;;19.55;4.22;;;;;;;;;;5062026;28;20044;-78
2023/09/28 09:46:10;;;;;;;19.95;5.05;;;;;;;;;;5077528;28;20040;-78
2023/09/28 09:48:36;;;;;;;22.80;4.78;;;;;;;;;;5077662;28;20119;-78
2023/09/28 09:51:03;;;;;;;23.85;5.00;;;;;;;;;;5077718;28;20048;-78
2023/09/28 09:53:30;;;;;;;23.73;5.03;;;;;;;;;;5061167;28;20055;-77
2023/09/28 09:55:57;;;;;;;24.00;4.80;;;;;;;;;;5060920;28;20055;-78
2023/09/28 09:58:27;;;;;;;26.48;4.97;;;;;;;;;;5061158;28;20055;-78
2023/09/28 10:00:55;;;;;;;24.52;4.90;;;;;;;;;;5077483;28;20052;-78
2023/09/28 10:03:22;;;;;;;21.83;4.85;;;;;;;;;;5078328;28;20040;-78
2023/09/28 10:05:48;;;;;;;21.23;4.30;;;;;;;;;;5077538;28;20396;-78
2023/09/28 10:08:15;;;;;;;17.88;3.85;;;;;;;;;;5060960;28;20056;-78
2023/09/28 10:10:41;;;;;;;18.20;3.75;;;;;;;;;;5077348;28;20040;-78
2023/09/28 10:13:07;;;;;;;22.92;4.40;;;;;;;;;;5060640;28;20483;-78
2023/09/28 10:15:34;;;;;;;24.50;3.67;;;;;;;;;;5060143;28;20056;-78
2023/09/28 10:18:01;;;;;;;18.23;4.40;;;;;;;;;;5077019;28;20052;-78
2023/09/28 10:20:28;;;;;;;24.17;4.40;;;;;;;;;;5077009;28;20052;-78
2023/09/28 10:22:55;;;;;;;18.63;4.00;;;;;;;;;;5077105;28;20087;-78
2023/09/28 10:25:23;;;;;;;27.27;4.60;;;;;;;;;;5077086;28;20086;-78
2023/09/28 10:27:50;;;;;;;24.13;4.28;;;;;;;;;;5076881;28;20054;-78
2023/09/28 10:30:18;;;;;;;22.60;4.03;;;;;;;;;;5077279;28;20051;-78
2023/09/28 10:32:45;;;;;;;26.63;4.15;;;;;;;;;;5076887;28;20094;-78
2023/09/28 10:35:21;;;;;;;20.92;4.32;;;;;;;;;;5076876;28;20142;-78
2023/09/28 10:38:05;;;;;;;22.00;4.57;;;;;;;;;;5076784;28;20364;-78
2023/09/28 10:40:33;;;;;;;19.10;4.10;;;;;;;;;;5076560;28;20097;-82
2023/09/28 10:43:13;;;;;;;25.02;4.70;;;;;;;;;;5060432;28;20098;-78
2023/09/28 10:45:41;;;;;;;15.68;3.83;;;;;;;;;;5076706;28;20052;-78
2023/09/28 10:48:07;;;;;;;22.60;4.43;;;;;;;;;;5076621;28;20119;-78
2023/09/28 10:50:40;;;;;;;22.67;4.15;;;;;;;;;;5076622;28;20063;-78
2023/09/28 10:53:06;;;;;;;18.73;3.88;;;;;;;;;;5059900;28;20547;-78
2023/09/28 10:55:32;;;;;;;20.25;4.28;;;;;;;;;;5076162;28;20066;-78
2023/09/28 10:58:04;;;;;;;24.08;4.40;;;;;;;;;;5059588;28;20052;-78
2023/09/28 11:00:32;;;;;;;19.88;3.78;;;;;;;;;;5076405;28;20396;-79
2023/09/28 11:02:59;;;;;;;20.70;4.40;;;;;;;;;;5076664;28;20043;-78
2023/09/28 11:05:25;;;;;;;20.80;4.30;;;;;;;;;;5076271;28;20055;-78
2023/09/28 11:07:51;;;;;;;23.30;4.45;;;;;;;;;;5077167;28;20123;-78
2023/09/28 11:10:18;;;;;;;21.23;4.30;;;;;;;;;;5076378;28;20055;-78
2023/09/28 11:12:44;;;;;;;21.75;4.25;;;;;;;;;;5059678;28;20472;-78
2023/09/28 11:15:14;;;;;;;17.15;3.22;;;;;;;;;;5075967;28;20403;-78
2023/09/28 11:17:41;;;;;;;20.95;4.40;;;;;;;;;;5060354;28;20052;-78
2023/09/28 11:20:11;;;;;;;25.88;4.53;;;;;;;;;;5059288;28;20129;-78
2023/09/28 11:22:37;;;;;;;26.17;4.18;;;;;;;;;;5077038;28;20131;-78
2023/09/28 11:25:04;;;;;;;22.38;4.63;;;;;;;;;;5059642;28;20048;-79
2023/09/28 11:27:30;;;;;;;25.92;4.15;;;;;;;;;;5059215;28;20040;-80
2023/09/28 11:29:56;;;;;;;22.58;4.13;;;;;;;;;;5076091;28;20094;-81
2023/09/28 11:32:22;;;;;;;26.50;4.60;;;;;;;;;;5076817;28;20376;-84
2023/09/28 11:34:48;;;;;;;23.02;4.15;;;;;;;;;;5075772;28;20052;-81
2023/09/28 11:37:18;;;;;;;19.73;4.30;;;;;;;;;;5042654;28;20040;-76
2023/09/28 11:39:44;;;;;;;22.42;4.30;;;;;;;;;;5075756;28;20052;-79
2023/09/28 11:42:12;;;;;;;21.75;3.90;;;;;;;;;;5075711;28;20093;-78
2023/09/28 11:44:38;;;;;;;20.88;3.97;;;;;;;;;;5059009;28;20048;-78
2023/09/28 11:47:08;;;;;;;24.90;4.00;;;;;;;;;;5075810;28;20044;-79
2023/09/28 11:49:37;;;;;;;19.15;4.05;;;;;;;;;;5042660;28;20108;-78
2023/09/28 11:52:04;;;;;;;20.83;4.00;;;;;;;;;;5060031;28;20044;-78
2023/09/28 11:54:30;;;;;;;18.52;4.00;;;;;;;;;;5075864;28;20044;-79
2023/09/28 11:56:57;;;;;;;16.67;3.72;;;;;;;;;;5059091;28;20480;-79
2023/09/28 11:59:24;;;;;;;17.35;3.92;;;;;;;;;;5075646;28;20056;-79
2023/09/28 12:01:52;;;;;;;18.75;4.38;;;;;;;;;;5075697;28;20126;-78
2023/09/28 12:04:18;;;;;;;21.23;3.80;;;;;;;;;;5075550;28;20054;-79
2023/09/28 12:06:45;;;;;;;24.20;3.70;;;;;;;;;;5076559;28;20455;-79
2023/09/28 12:09:15;;;;;;;16.42;3.47;;;;;;;;;;5075389;28;20115;-79
2023/09/28 12:11:44;;;;;;;18.65;4.13;;;;;;;;;;5075932;28;20135;-78
2023/09/28 12:14:10;;;;;;;18.13;3.60;;;;;;;;;;5059194;28;20052;-78
2023/09/28 12:16:36;;;;;;;22.02;4.57;;;;;;;;;;5075935;28;20388;-78
2023/09/28 12:19:03;;;;;;;18.42;4.25;;;;;;;;;;5075199;28;20498;-78
2023/09/28 12:21:29;;;;;;;21.30;4.13;;;;;;;;;;5058836;28;20052;-78
2023/09/28 12:23:58;;;;;;;18.55;4.35;;;;;;;;;;5059130;28;20048;-78
2023/09/28 12:26:24;;;;;;;21.17;4.30;;;;;;;;;;5058795;28;20055;-82
2023/09/28 12:28:50;;;;;;;16.70;3.80;;;;;;;;;;5058855;28;20126;-78
2023/09/28 12:31:17;;;;;;;18.40;4.10;;;;;;;;;;5075541;28;20044;-78
2023/09/28 12:33:43;;;;;;;18.23;3.67;;;;;;;;;;5059148;28;20498;-78
2023/09/28 12:36:09;;;;;;;16.58;3.97;;;;;;;;;;5076237;28;20078;-78
2023/09/28 12:38:35;;;;;;;20.42;3.90;;;;;;;;;;5058800;28;20111;-79
2023/09/28 12:41:05;;;;;;;21.10;4.57;;;;;;;;;;5062750;28;20376;-78
2023/09/28 12:43:31;;;;;;;18.25;3.55;;;;;;;;;;5079424;28;20051;-79
2023/09/28 12:45:57;;;;;;;17.20;4.25;;;;;;;;;;5046129;28;20048;-78
2023/09/28 12:48:24;;;;;;;20.92;4.55;;;;;;;;;;5078637;28;20048;-78
2023/09/28 12:50:51;;;;;;;21.27;3.70;;;;;;;;;;5078836;28;20084;-79
2023/09/28 12:53:17;;;;;;;21.40;4.15;;;;;;;;;;5062873;28;20083;-78
2023/09/28 12:55:43;;;;;;;16.98;3.40;;;;;;;;;;5062412;28;20083;-79
2023/09/28 12:58:09;;;;;;;21.92;4.38;;;;;;;;;;5079350;28;20101;-78
2023/09/28 13:00:37;;;;;;;17.98;3.50;;;;;;;;;;5078673;28;20541;-78
2023/09/28 13:03:07;;;;;;;17.23;3.58;;;;;;;;;;5078859;28;20047;-79
2023/09/28 13:05:37;;;;;;;18.55;4.25;;;;;;;;;;5046054;28;20109;-79
2023/09/28 13:08:04;;;;;;;18.88;4.15;;;;;;;;;;5061664;28;20059;-79
2023/09/28 13:10:30;;;;;;;23.52;3.97;;;;;;;;;;5079336;28;20472;-79
2023/09/28 13:12:56;;;;;;;15.20;3.60;;;;;;;;;;5078447;28;20051;-79
2023/09/28 13:15:22;;;;;;;15.88;3.30;;;;;;;;;;5078453;28;20051;-78
2023/09/28 13:17:49;;;;;;;14.60;3.40;;;;;;;;;;5078371;28;20043;-79
2023/09/28 13:20:26;;;;;;;17.27;3.72;;;;;;;;;;5077524;28;20056;-78
2023/09/28 13:22:54;;;;;;;16.52;3.03;;;;;;;;;;5079154;28;20056;-78
2023/09/28 13:25:23;;;;;;;19.00;3.60;;;;;;;;;;5096115;28;20466;-79
2023/09/28 13:27:50;;;;;;;17.05;3.72;;;;;;;;;;5044805;28;20060;-79
2023/09/28 13:30:19;;;;;;;16.73;3.08;;;;;;;;;;5061392;28;20052;-79
2023/09/28 13:32:46;;;;;;;14.48;3.40;;;;;;;;;;5078888;28;20396;-78
2023/09/28 13:35:13;;;;;;;14.07;3.00;;;;;;;;;;5060587;28;20052;-79
2023/09/28 13:37:39;;;;;;;20.92;4.18;;;;;;;;;;5077790;28;20129;-78
2023/09/28 13:40:15;;;;;;;17.13;3.72;;;;;;;;;;5078135;28;20122;-79
2023/09/28 13:42:41;;;;;;;19.42;3.65;;;;;;;;;;5077799;28;20101;-78
2023/09/28 13:45:09;;;;;;;15.77;3.50;;;;;;;;;;5062007;28;20055;-78
2023/09/28 13:47:35;;;;;;;19.38;4.35;;;;;;;;;;5077828;28;20388;-78
2023/09/28 13:50:03;;;;;;;20.88;3.53;;;;;;;;;;5078124;28;20127;-78
2023/09/28 13:52:29;;;;;;;17.23;3.22;;;;;;;;;;5077718;28;20094;-78
2023/09/28 13:54:55;;;;;;;19.83;4.15;;;;;;;;;;5078210;28;20044;-78
2023/09/28 13:57:22;;;;;;;15.43;3.28;;;;;;;;;;5077531;28;20052;-78
2023/09/28 13:59:53;;;;;;;20.70;4.07;;;;;;;;;;5077434;28;20532;-79
2023/09/28 14:02:25;;;;;;;18.58;4.05;;;;;;;;;;5061609;28;20101;-78
2023/09/28 14:04:51;;;;;;;18.02;3.65;;;;;;;;;;5095405;28;20462;-78
2023/09/28 14:07:17;;;;;;;15.60;3.88;;;;;;;;;;5061737;28;20051;-79
2023/09/28 14:09:44;;;;;;;19.20;3.80;;;;;;;;;;5077369;28;20472;-79
2023/09/28 14:12:12;;;;;;;15.15;3.65;;;;;;;;;;5060252;28;20555;-78
2023/09/28 14:14:38;;;;;;;23.15;4.30;;;;;;;;;;5076965;28;20051;-79
2023/09/28 14:17:05;;;;;;;17.65;3.85;;;;;;;;;;5077392;28;20075;-79
2023/09/28 14:19:33;;;;;;;19.48;3.45;;;;;;;;;;5060021;28;20055;-78
2023/09/28 14:21:59;;;;;;;17.23;3.75;;;;;;;;;;5077190;28;20059;-79
2023/09/28 14:24:28;;;;;;;15.07;3.35;;;;;;;;;;5076867;28;20142;-79
2023/09/28 14:26:55;;;;;;;19.98;3.70;;;;;;;;;;5076795;28;20048;-80
2023/09/28 14:29:21;;;;;;;15.88;3.17;;;;;;;;;;5076939;28;20498;-78
2023/09/28 14:31:47;;;;;;;22.45;3.97;;;;;;;;;;5077763;28;20044;-78
2023/09/28 14:34:13;;;;;;;21.10;4.13;;;;;;;;;;5060266;28;20127;-78
2023/09/28 14:36:39;;;;;;;17.92;4.22;;;;;;;;;;5077073;28;20074;-78